Time;durP1;ratioP1;P1;durP2;ratioP2;P2;SDS_P1;SDS_P2;PMS_P1;PMS_P2;Temp;Humidity;BMP_temperature;BMP_pressure;BME280_temperature;BME280_humidity;BME280_pressure;Samples;Min_cycle;Max_cycle;Signal;HPM_P1;HPM_P2
2022/03/03 00:04:16;;;;;;;156.38;54.30;;;;;;;0.30;60.76;100816.02;712967;1174;115218;-74
2022/03/03 00:19:18;;;;;;;422.05;117.53;;;;;;;0.32;61.62;100794.41;713036;1174;116094;-73
2022/03/03 00:34:20;;;;;;;189.10;62.00;;;;;;;0.54;60.63;100783.30;712932;1177;115118;-73
2022/03/03 00:49:22;;;;;;;300.35;91.88;;;;;;;0.72;61.04;100763.64;712871;1174;115677;-73
2022/03/03 01:04:24;;;;;;;158.88;59.03;;;;;;;0.72;62.70;100755.06;713064;1175;115951;-73
2022/03/03 01:19:26;;;;;;;153.10;51.97;;;;;;;0.56;61.49;100747.91;712960;1174;115693;-74
2022/03/03 01:34:29;;;;;;;142.23;54.25;;;;;;;0.71;61.92;100745.63;713181;1174;115966;-73
2022/03/03 01:49:31;;;;;;;180.13;65.97;;;;;;;0.57;63.47;100740.99;712997;1174;115770;-74
2022/03/03 02:04:33;;;;;;;187.47;61.33;;;;;;;0.26;63.76;100729.28;713101;1175;115722;-74
2022/03/03 02:19:35;;;;;;;260.30;86.60;;;;;;;-0.06;62.87;100726.17;713022;1177;115542;-74
2022/03/03 02:34:37;;;;;;;203.10;66.70;;;;;;;-0.43;64.23;100714.61;713119;1174;115297;-72
2022/03/03 02:49:40;;;;;;;176.55;60.60;;;;;;;-0.55;64.45;100696.09;712979;1174;115527;-73
2022/03/03 03:04:42;;;;;;;200.68;68.35;;;;;;;-0.51;64.05;100686.52;712809;1174;115931;-72
2022/03/03 03:19:44;;;;;;;170.05;58.20;;;;;;;-0.62;63.87;100676.59;713056;1174;116108;-72
2022/03/03 03:34:46;;;;;;;158.90;54.97;;;;;;;-0.77;64.03;100671.97;713163;1174;116208;-74
2022/03/03 03:49:48;;;;;;;144.32;49.90;;;;;;;-0.86;63.19;100670.54;713315;1174;115999;-74
2022/03/03 04:04:51;;;;;;;124.00;45.30;;;;;;;-1.10;64.15;100664.49;713095;1167;115559;-77
2022/03/03 04:19:53;;;;;;;176.35;53.05;;;;;;;-1.17;64.46;100654.39;713297;1174;116190;-74
2022/03/03 04:34:55;;;;;;;131.73;45.13;;;;;;;-1.24;64.62;100634.04;713271;1174;116349;-77
2022/03/03 04:49:57;;;;;;;144.38;52.83;;;;;;;-1.39;64.12;100637.97;713781;1174;115844;-72
2022/03/03 05:05:00;;;;;;;103.38;41.75;;;;;;;-1.48;64.29;100638.27;713091;1174;114667;-74
2022/03/03 05:20:03;;;;;;;138.03;52.60;;;;;;;-1.60;64.57;100640.34;713442;1174;114601;-72
2022/03/03 05:35:07;;;;;;;407.17;108.43;;;;;;;-1.45;65.03;100646.74;713201;1174;116106;-77
2022/03/03 05:50:09;;;;;;;251.65;83.50;;;;;;;-1.15;65.57;100641.45;713043;1177;116151;-76
2022/03/03 06:05:13;;;;;;;324.90;107.00;;;;;;;-0.81;65.69;100645.45;713103;1174;115841;-77
2022/03/03 06:20:18;;;;;;;274.85;96.05;;;;;;;-0.37;66.66;100642.17;713323;1174;116303;-76
2022/03/03 06:35:20;;;;;;;238.75;94.60;;;;;;;0.01;66.97;100650.22;713063;1177;115913;-72
2022/03/03 06:50:22;;;;;;;311.77;107.27;;;;;;;0.47;66.92;100643.25;713017;1174;115197;-73
2022/03/03 07:05:25;;;;;;;425.63;158.40;;;;;;;0.77;67.56;100655.82;713094;1174;115858;-74
2022/03/03 07:20:36;;;;;;;470.53;187.65;;;;;;;1.11;67.79;100659.58;713479;1173;115875;-75
2022/03/03 07:35:43;;;;;;;699.80;279.23;;;;;;;1.49;68.06;100658.81;714243;1174;116364;-74
2022/03/03 07:50:46;;;;;;;133.15;53.65;;;;;;;1.93;69.23;100673.27;713395;1174;115148;-75
2022/03/03 08:05:51;;;;;;;65.20;28.65;;;;;;;2.36;69.82;100671.23;713112;1174;115672;-73
2022/03/03 08:20:56;;;;;;;97.85;33.70;;;;;;;2.62;70.43;100667.39;713352;1174;114128;-73
2022/03/03 08:36:00;;;;;;;72.20;29.53;;;;;;;2.90;70.72;100670.39;713061;1174;115237;-73
2022/03/03 08:51:03;;;;;;;89.55;32.10;;;;;;;3.30;70.20;100658.02;713234;1174;114900;-75
2022/03/03 09:06:06;;;;;;;129.87;46.40;;;;;;;3.41;70.19;100660.87;713108;1174;115023;-74
2022/03/03 09:21:08;;;;;;;64.88;28.53;;;;;;;3.58;70.15;100664.34;713443;1174;114996;-74
2022/03/03 09:36:11;;;;;;;60.55;24.33;;;;;;;3.87;69.92;100664.53;713145;1174;115742;-76
2022/03/03 09:51:13;;;;;;;59.80;26.85;;;;;;;3.95;69.24;100696.13;713320;1174;115111;-76
2022/03/03 10:06:22;;;;;;;90.13;29.57;;;;;;;4.19;68.71;100699.14;713354;1175;114878;-78
2022/03/03 10:21:28;;;;;;;131.83;45.13;;;;;;;4.34;68.28;100705.24;713505;1174;114981;-76
2022/03/03 10:36:32;;;;;;;76.63;24.18;;;;;;;4.39;68.15;100698.03;713577;1174;115553;-74
2022/03/03 10:51:35;;;;;;;42.20;18.03;;;;;;;4.48;68.19;100709.69;713292;1174;115580;-74
2022/03/03 11:06:38;;;;;;;164.73;44.37;;;;;;;4.57;67.83;100671.97;713338;1174;115466;-75
2022/03/03 11:21:40;;;;;;;120.48;34.60;;;;;;;4.95;67.55;100661.13;714031;1174;114333;-75
2022/03/03 11:36:46;;;;;;;149.70;46.23;;;;;;;5.27;66.84;100640.98;713459;1174;115387;-74
2022/03/03 11:51:51;;;;;;;100.33;30.93;;;;;;;5.55;66.31;100641.91;713441;1174;114307;-74
2022/03/03 12:06:59;;;;;;;38.33;17.65;;;;;;;5.58;65.23;100639.14;713215;1177;115192;-74
2022/03/03 12:22:03;;;;;;;37.90;16.87;;;;;;;5.69;65.10;100653.23;713331;1177;114065;-74
2022/03/03 12:37:06;;;;;;;51.97;19.20;;;;;;;5.87;65.08;100641.68;713309;1167;114954;-74
2022/03/03 12:52:08;;;;;;;57.90;23.10;;;;;;;5.77;64.88;100633.63;713973;1177;114202;-75
2022/03/03 13:07:11;;;;;;;59.83;24.20;;;;;;;5.74;64.69;100639.03;713774;1174;114519;-75
2022/03/03 13:22:14;;;;;;;28.58;14.23;;;;;;;5.77;66.15;100628.41;713949;1174;114640;-74
2022/03/03 13:37:18;;;;;;;26.73;13.20;;;;;;;6.26;65.89;100618.45;713532;1174;114850;-75
2022/03/03 13:52:27;;;;;;;88.40;37.78;;;;;;;6.06;65.39;100617.96;713583;1174;114215;-74
2022/03/03 14:07:32;;;;;;;28.37;12.03;;;;;;;6.46;65.47;100599.73;713275;1174;114914;-74
2022/03/03 14:22:36;;;;;;;46.23;21.63;;;;;;;6.76;64.73;100595.21;713353;1177;114868;-74
2022/03/03 14:37:40;;;;;;;33.28;16.83;;;;;;;15.03;59.25;100599.55;713486;1174;114183;-75
2022/03/03 14:52:43;;;;;;;35.93;17.23;;;;;;;8.65;58.76;100588.80;713379;1175;115704;-74
2022/03/03 15:07:46;;;;;;;25.78;12.20;;;;;;;7.31;59.91;100586.22;713339;1175;114813;-74
2022/03/03 15:22:49;;;;;;;18.13;7.93;;;;;;;7.44;60.86;100574.91;713623;1174;114997;-73
2022/03/03 15:37:52;;;;;;;18.23;8.23;;;;;;;9.16;61.08;100584.95;713368;1174;113922;-74
2022/03/03 15:52:56;;;;;;;87.20;29.63;;;;;;;8.28;60.69;100588.91;713280;1177;114474;-74
2022/03/03 16:07:59;;;;;;;45.80;18.90;;;;;;;6.92;61.09;100615.88;713707;1174;114990;-75
2022/03/03 16:23:02;;;;;;;54.40;22.90;;;;;;;6.20;62.59;100600.61;713288;1174;115525;-72
2022/03/03 16:38:04;;;;;;;192.03;64.40;;;;;;;5.93;64.60;100607.45;713629;1177;115515;-72
2022/03/03 16:53:07;;;;;;;588.90;209.78;;;;;;;5.78;65.88;100624.03;713372;1175;115122;-72
2022/03/03 17:08:09;;;;;;;255.07;99.53;;;;;;;5.62;66.72;100639.77;713649;1174;115692;-74
2022/03/03 17:23:12;;;;;;;70.78;29.95;;;;;;;5.50;67.82;100652.63;713617;1175;114972;-73
2022/03/03 17:38:15;;;;;;;58.03;27.40;;;;;;;5.45;67.43;100654.66;713765;1177;114185;-70
2022/03/03 17:53:18;;;;;;;175.40;56.90;;;;;;;5.40;68.22;100651.50;713412;1174;115698;-72
2022/03/03 18:08:21;;;;;;;165.88;63.03;;;;;;;5.32;69.58;100667.57;713673;1174;115114;-72
2022/03/03 18:23:23;;;;;;;135.13;49.68;;;;;;;5.24;69.01;100671.55;713910;1174;114699;-74
2022/03/03 18:38:26;;;;;;;68.00;29.08;;;;;;;5.20;69.36;100672.66;713883;1174;114225;-72
2022/03/03 18:53:29;;;;;;;54.33;22.13;;;;;;;5.12;70.77;100671.36;713816;1174;115611;-72
2022/03/03 19:08:33;;;;;;;57.73;24.48;;;;;;;5.22;70.68;100671.64;714159;1174;115411;-72
2022/03/03 19:23:39;;;;;;;89.53;35.03;;;;;;;5.27;72.07;100671.38;714398;1175;114843;-72
2022/03/03 19:38:41;;;;;;;109.20;38.07;;;;;;;5.26;72.35;100664.50;714218;1176;115643;-71
2022/03/03 19:53:43;;;;;;;72.43;26.98;;;;;;;5.31;73.96;100665.89;714031;1174;115691;-73
2022/03/03 20:24:08;;;;;;;62.78;24.95;;;;;;;5.37;73.95;100667.31;715033;1175;115622;-70
2022/03/03 20:39:10;;;;;;;91.08;31.53;;;;;;;5.37;74.04;100682.06;713854;1174;115635;-75
2022/03/03 20:54:12;;;;;;;56.45;22.53;;;;;;;5.30;75.74;100669.41;714227;1177;114028;-76
2022/03/03 21:09:15;;;;;;;32.57;15.13;;;;;;;5.31;76.01;100667.67;713956;1174;114026;-77
2022/03/03 21:24:17;;;;;;;68.05;23.20;;;;;;;5.30;76.80;100672.02;713787;1174;114570;-76
2022/03/03 21:39:19;;;;;;;36.70;13.58;;;;;;;5.34;77.13;100667.47;713443;1175;114161;-77
2022/03/03 21:54:22;;;;;;;102.80;35.10;;;;;;;5.33;77.10;100676.20;713925;1177;114188;-77
2022/03/03 22:09:25;;;;;;;105.40;26.63;;;;;;;5.35;77.84;100670.93;714137;1175;117255;-77
2022/03/03 22:24:27;;;;;;;21.03;9.30;;;;;;;5.29;77.89;100659.11;713937;1174;114356;-78
2022/03/03 22:39:29;;;;;;;43.73;14.45;;;;;;;5.31;77.42;100657.27;714471;1174;115299;-77
2022/03/03 22:54:31;;;;;;;18.65;7.95;;;;;;;5.26;77.56;100662.72;714241;1174;114987;-77
2022/03/03 23:09:33;;;;;;;13.10;6.73;;;;;;;5.21;77.93;100669.96;714061;1177;114555;-76
2022/03/03 23:24:36;;;;;;;9.13;4.43;;;;;;;5.16;77.76;100674.63;713337;1174;114539;-77
2022/03/03 23:39:38;;;;;;;19.55;7.13;;;;;;;5.14;76.88;100672.09;713589;1174;114628;-76
2022/03/03 23:54:40;;;;;;;14.27;5.27;;;;;;;5.11;77.68;100684.46;713662;1174;114717;-77
